Time;durP1;ratioP1;P1;durP2;ratioP2;P2;SDS_P1;SDS_P2;PMS_P1;PMS_P2;Temp;Humidity;BMP_temperature;BMP_pressure;BME280_temperature;BME280_humidity;BME280_pressure;Samples;Min_cycle;Max_cycle;Signal;HPM_P1;HPM_P2
2023/11/29 00:00:24;;;;;;;8.40;4.20;;;-1.80;99.90;;;;;;4243174;28;20202;-73
2023/11/29 00:02:26;;;;;;;8.97;3.70;;;-1.80;99.90;;;;;;4242960;27;20465;-75
2023/11/29 00:04:27;;;;;;;7.17;3.47;;;-1.80;99.90;;;;;;4237375;28;20447;-73
2023/11/29 00:06:28;;;;;;;8.00;4.03;;;-1.80;99.90;;;;;;4236253;27;20497;-78
2023/11/29 00:08:30;;;;;;;7.10;3.97;;;-1.80;99.90;;;;;;4244499;28;20454;-73
2023/11/29 00:10:32;;;;;;;8.13;3.83;;;-1.80;99.90;;;;;;4238392;28;20201;-73
2023/11/29 00:12:34;;;;;;;7.83;3.87;;;-1.80;99.90;;;;;;4242835;28;20450;-73
2023/11/29 00:14:37;;;;;;;6.90;3.77;;;-1.80;99.90;;;;;;4235908;27;20454;-72
2023/11/29 00:16:39;;;;;;;7.97;3.77;;;-1.80;99.90;;;;;;4242550;27;20474;-75
2023/11/29 00:18:42;;;;;;;7.47;3.60;;;-1.90;99.90;;;;;;4247653;27;20473;-75
2023/11/29 00:20:45;;;;;;;8.80;4.23;;;-1.90;99.90;;;;;;4247351;27;20441;-73
2023/11/29 00:22:47;;;;;;;6.93;3.80;;;-1.90;99.90;;;;;;4240164;27;20460;-74
2023/11/29 00:24:49;;;;;;;6.00;3.40;;;-1.90;99.90;;;;;;4243450;27;20438;-73
2023/11/29 00:26:51;;;;;;;7.70;4.07;;;-1.90;99.90;;;;;;4242539;27;20439;-72
2023/11/29 00:28:53;;;;;;;6.40;3.73;;;-2.00;99.90;;;;;;4244091;27;20912;-73
2023/11/29 00:30:56;;;;;;;6.37;3.63;;;-2.20;99.90;;;;;;4244292;27;20434;-73
2023/11/29 00:32:57;;;;;;;7.43;4.07;;;-2.00;99.90;;;;;;4245207;27;20501;-74
2023/11/29 00:34:59;;;;;;;6.93;3.67;;;-1.90;99.90;;;;;;4240356;27;20442;-75
2023/11/29 00:37:01;;;;;;;7.63;3.80;;;-2.00;99.90;;;;;;4225131;28;20222;-75
2023/11/29 00:39:03;;;;;;;6.80;3.80;;;-2.00;99.90;;;;;;4246156;27;20457;-73
2023/11/29 00:41:05;;;;;;;6.67;3.80;;;-2.00;99.90;;;;;;4245219;27;20536;-73
2023/11/29 00:43:08;;;;;;;8.13;4.23;;;-2.10;99.90;;;;;;4249536;27;20433;-72
2023/11/29 00:45:11;;;;;;;7.67;4.03;;;-2.10;99.90;;;;;;4241992;27;20819;-73
2023/11/29 00:47:14;;;;;;;7.50;3.77;;;-2.10;99.90;;;;;;4237513;27;20562;-72
2023/11/29 00:49:17;;;;;;;8.73;4.10;;;-2.10;99.90;;;;;;4236499;27;20520;-75
2023/11/29 00:51:19;;;;;;;9.80;4.57;;;-2.20;99.90;;;;;;4241110;27;20809;-74
2023/11/29 00:53:21;;;;;;;10.63;4.33;;;-2.20;99.90;;;;;;4246142;27;20507;-73
2023/11/29 00:55:23;;;;;;;10.20;4.97;;;-2.20;99.90;;;;;;4238686;27;20478;-73
2023/11/29 00:57:25;;;;;;;10.73;4.13;;;-2.20;99.90;;;;;;4243863;27;20538;-74
2023/11/29 00:59:27;;;;;;;7.87;4.40;;;-2.20;99.90;;;;;;4242322;27;20435;-74
2023/11/29 01:01:27;;;;;;;10.73;5.00;;;-2.20;99.90;;;;;;4244824;27;20503;-73
2023/11/29 01:03:31;;;;;;;12.70;5.07;;;-2.20;99.90;;;;;;4239251;27;20854;-72
2023/11/29 01:05:32;;;;;;;9.33;5.33;;;-2.20;99.90;;;;;;4235324;27;20205;-73
2023/11/29 01:07:33;;;;;;;9.23;4.53;;;-2.30;99.90;;;;;;4238528;27;20435;-73
2023/11/29 01:09:35;;;;;;;9.80;4.87;;;-2.30;99.90;;;;;;4244295;27;20257;-73
2023/11/29 01:11:37;;;;;;;10.47;4.83;;;-2.30;99.90;;;;;;4239198;27;20528;-73
2023/11/29 01:13:39;;;;;;;11.60;5.23;;;-2.30;99.90;;;;;;4224655;27;20447;-75
2023/11/29 01:15:41;;;;;;;15.53;5.33;;;-2.30;99.90;;;;;;4244421;27;20523;-73
2023/11/29 01:17:44;;;;;;;11.47;5.73;;;-2.30;99.90;;;;;;4242356;27;20473;-72
2023/11/29 01:19:47;;;;;;;12.00;5.80;;;-2.30;99.90;;;;;;4238942;27;20895;-73
2023/11/29 01:21:49;;;;;;;12.10;5.43;;;-2.30;99.90;;;;;;4238042;27;20454;-73
2023/11/29 01:23:50;;;;;;;12.90;5.83;;;-2.40;99.90;;;;;;4242113;27;20517;-73
2023/11/29 01:25:52;;;;;;;14.93;5.67;;;-2.30;99.90;;;;;;4240114;27;21028;-73
2023/11/29 01:27:55;;;;;;;18.87;6.00;;;-2.30;99.90;;;;;;4243181;27;20465;-72
2023/11/29 01:29:56;;;;;;;13.13;5.53;;;-2.40;99.90;;;;;;4237741;27;20939;-75
2023/11/29 01:31:58;;;;;;;10.40;5.60;;;-2.30;99.90;;;;;;4237533;27;20446;-73
2023/11/29 01:33:59;;;;;;;11.43;5.67;;;-2.30;99.90;;;;;;4239525;27;20499;-73
2023/11/29 01:36:08;;;;;;;11.60;5.93;;;-2.40;99.90;;;;;;4241800;27;20473;-75
2023/11/29 01:38:10;;;;;;;11.87;6.00;;;-2.40;99.90;;;;;;4244167;27;20277;-73
2023/11/29 01:40:12;;;;;;;10.40;5.70;;;-2.40;99.90;;;;;;4225688;27;20493;-73
2023/11/29 01:42:14;;;;;;;12.57;6.27;;;-2.50;99.90;;;;;;4236890;27;20461;-73
2023/11/29 01:44:15;;;;;;;14.63;6.20;;;-2.40;99.90;;;;;;4242124;27;20434;-74
2023/11/29 01:46:17;;;;;;;15.50;6.20;;;-2.40;99.90;;;;;;4244032;27;20435;-73
2023/11/29 01:48:20;;;;;;;12.23;6.03;;;-2.40;99.90;;;;;;4239407;27;20747;-72
2023/11/29 01:50:26;;;;;;;13.40;5.87;;;-2.40;99.90;;;;;;4238793;27;20977;-73
2023/11/29 01:52:29;;;;;;;14.60;6.20;;;-2.40;99.90;;;;;;4242667;27;20522;-75
2023/11/29 01:54:31;;;;;;;13.10;6.00;;;-2.50;99.90;;;;;;4233481;27;20430;-73
2023/11/29 01:56:33;;;;;;;13.20;5.93;;;-2.50;99.90;;;;;;4241709;27;20484;-72
2023/11/29 01:58:35;;;;;;;15.27;6.70;;;-2.50;99.90;;;;;;4240806;27;20462;-72
2023/11/29 02:00:37;;;;;;;14.13;6.30;;;-2.50;99.90;;;;;;4241792;27;20472;-73
2023/11/29 02:02:40;;;;;;;12.40;6.10;;;-2.40;99.90;;;;;;4237739;27;20510;-73
2023/11/29 02:04:42;;;;;;;13.10;6.13;;;-2.40;99.90;;;;;;4242451;27;20453;-75
2023/11/29 02:06:45;;;;;;;12.80;6.33;;;-2.40;99.90;;;;;;4223927;28;20814;-75
2023/11/29 02:08:48;;;;;;;16.00;6.40;;;-2.40;99.90;;;;;;4238080;27;20463;-74
2023/11/29 02:10:50;;;;;;;14.77;6.37;;;-2.40;99.90;;;;;;4240554;27;20469;-73
2023/11/29 02:12:53;;;;;;;16.17;6.77;;;-2.40;99.90;;;;;;4239962;27;20487;-78
2023/11/29 02:14:56;;;;;;;12.53;6.27;;;-2.50;99.90;;;;;;4241361;27;20868;-73
2023/11/29 02:16:58;;;;;;;14.30;6.03;;;-2.50;99.90;;;;;;4237526;27;20512;-74
2023/11/29 02:19:00;;;;;;;15.37;6.63;;;-2.50;99.90;;;;;;4237319;27;20514;-76
2023/11/29 02:21:02;;;;;;;15.60;6.50;;;-2.50;99.90;;;;;;4239831;27;20457;-78
2023/11/29 02:23:17;;;;;;;15.83;6.40;;;-2.50;99.90;;;;;;4245480;27;20441;-72
2023/11/29 02:25:21;;;;;;;13.23;6.40;;;-2.50;99.90;;;;;;4239560;27;20515;-73
2023/11/29 02:27:23;;;;;;;11.50;6.13;;;-2.50;99.90;;;;;;4228384;27;20449;-78
2023/11/29 02:29:25;;;;;;;15.33;6.73;;;-2.20;99.90;;;;;;4234990;27;20471;-73
2023/11/29 02:31:26;;;;;;;15.67;7.17;;;-2.50;99.90;;;;;;4248561;27;20434;-73
2023/11/29 02:33:28;;;;;;;15.10;6.67;;;-2.50;99.90;;;;;;4241702;27;20840;-75
2023/11/29 02:35:30;;;;;;;14.23;6.60;;;-2.60;99.90;;;;;;4239362;27;20229;-73
2023/11/29 02:37:32;;;;;;;18.03;6.77;;;-2.60;99.90;;;;;;4216266;28;20471;-74
2023/11/29 02:39:34;;;;;;;12.60;6.50;;;-2.60;99.90;;;;;;4237827;27;20442;-73
2023/11/29 02:41:38;;;;;;;13.90;6.67;;;-2.60;99.90;;;;;;4227075;27;20437;-73
2023/11/29 02:43:43;;;;;;;12.10;6.20;;;-2.60;99.90;;;;;;4234615;27;20438;-75
2023/11/29 02:45:45;;;;;;;14.73;6.47;;;-2.70;99.90;;;;;;4240376;27;20513;-76
2023/11/29 02:47:47;;;;;;;13.43;6.23;;;-2.70;99.90;;;;;;4234403;27;20863;-73
2023/11/29 02:49:49;;;;;;;14.80;6.80;;;-2.70;99.90;;;;;;4242115;27;20435;-73
2023/11/29 02:51:51;;;;;;;12.77;6.80;;;-2.70;99.90;;;;;;4235867;27;20498;-77
2023/11/29 02:53:53;;;;;;;13.07;6.07;;;-2.70;99.90;;;;;;4236946;27;20442;-77
2023/11/29 02:55:55;;;;;;;12.97;6.13;;;-2.60;99.90;;;;;;4241606;27;20940;-75
2023/11/29 02:57:58;;;;;;;15.27;6.73;;;-2.70;99.90;;;;;;4243422;27;20469;-76
2023/11/29 03:00:02;;;;;;;12.30;6.13;;;-2.60;99.90;;;;;;4242787;27;21264;-73
2023/11/29 03:02:04;;;;;;;12.63;6.30;;;-2.70;99.90;;;;;;4220338;28;20458;-73
2023/11/29 03:04:06;;;;;;;15.13;6.63;;;-2.70;99.90;;;;;;4236147;27;20446;-73
2023/11/29 03:06:07;;;;;;;15.90;6.20;;;-2.80;99.90;;;;;;4235311;27;20453;-73
2023/11/29 03:08:09;;;;;;;12.83;5.43;;;-2.70;99.90;;;;;;4234772;27;21172;-73
2023/11/29 03:10:11;;;;;;;11.27;5.40;;;-2.70;99.90;;;;;;4243860;27;20453;-73
2023/11/29 03:12:13;;;;;;;12.40;6.13;;;-2.80;99.90;;;;;;4240510;27;20476;-72
2023/11/29 03:14:15;;;;;;;11.27;4.97;;;-2.80;99.90;;;;;;4235578;27;20496;-73
2023/11/29 03:16:17;;;;;;;13.50;5.70;;;-2.80;99.90;;;;;;4237023;27;20580;-73
2023/11/29 03:18:19;;;;;;;13.27;5.27;;;-2.80;99.90;;;;;;4241588;27;21000;-75
2023/11/29 03:20:21;;;;;;;10.13;4.83;;;-2.90;99.90;;;;;;4233960;27;20442;-75
2023/11/29 03:22:23;;;;;;;10.80;5.10;;;-2.80;99.90;;;;;;4239596;27;20441;-73
2023/11/29 03:24:24;;;;;;;8.70;4.83;;;-2.80;99.90;;;;;;4235657;27;20530;-72
2023/11/29 03:26:26;;;;;;;10.47;4.90;;;-2.20;99.90;;;;;;4237829;27;20438;-77
2023/11/29 03:28:30;;;;;;;11.70;4.70;;;-2.70;99.90;;;;;;4239691;27;20238;-75
2023/11/29 03:30:33;;;;;;;9.37;4.53;;;-2.70;99.90;;;;;;4238388;27;20944;-76
2023/11/29 03:32:34;;;;;;;11.20;4.93;;;-2.70;99.90;;;;;;4238134;27;20450;-73
2023/11/29 03:34:36;;;;;;;10.30;4.33;;;-2.70;99.90;;;;;;4239038;27;20456;-76
2023/11/29 03:36:39;;;;;;;8.60;4.53;;;-2.70;99.90;;;;;;4240464;27;20225;-74
2023/11/29 03:38:41;;;;;;;9.87;4.73;;;-2.70;99.90;;;;;;4239088;27;20453;-73
2023/11/29 03:40:43;;;;;;;12.60;4.87;;;-2.70;99.90;;;;;;4236003;27;20502;-73
2023/11/29 03:42:45;;;;;;;10.10;4.37;;;-2.70;99.90;;;;;;4237742;27;20444;-74
2023/11/29 03:44:47;;;;;;;8.33;4.23;;;-2.80;99.90;;;;;;4238265;27;20524;-74
2023/11/29 03:46:49;;;;;;;8.80;4.07;;;-2.80;99.90;;;;;;4242090;27;20442;-74
2023/11/29 03:48:51;;;;;;;11.23;4.80;;;-2.90;99.90;;;;;;4238711;27;21486;-75
2023/11/29 03:50:53;;;;;;;14.50;3.97;;;-2.90;99.90;;;;;;4239642;28;20462;-74
2023/11/29 03:52:54;;;;;;;8.00;4.07;;;-2.80;99.90;;;;;;4236904;27;20440;-73
2023/11/29 03:54:56;;;;;;;9.93;4.47;;;-2.90;99.90;;;;;;4236620;27;20436;-72
2023/11/29 03:56:58;;;;;;;10.73;4.30;;;-2.90;99.90;;;;;;4243084;27;20292;-73
2023/11/29 03:59:00;;;;;;;7.73;3.73;;;-2.90;99.90;;;;;;4240548;27;20491;-73
2023/11/29 04:01:03;;;;;;;8.00;3.80;;;-2.80;99.90;;;;;;4243648;27;20441;-73
2023/11/29 04:03:05;;;;;;;8.07;4.17;;;-2.80;99.90;;;;;;4241064;27;20436;-73
2023/11/29 04:05:08;;;;;;;9.03;4.47;;;-2.80;99.90;;;;;;4235024;28;20546;-77
2023/11/29 04:07:09;;;;;;;8.57;4.00;;;-2.90;99.90;;;;;;4233346;28;20507;-73
2023/11/29 04:09:11;;;;;;;10.80;4.30;;;-2.90;99.90;;;;;;4234769;28;20469;-72
2023/11/29 04:11:12;;;;;;;10.50;4.43;;;-3.00;99.90;;;;;;4236464;28;20943;-74
2023/11/29 04:13:13;;;;;;;8.10;3.73;;;-2.90;99.90;;;;;;4240854;27;20438;-73
2023/11/29 04:15:15;;;;;;;7.27;3.70;;;-3.00;99.90;;;;;;4239891;28;20208;-74
2023/11/29 04:17:16;;;;;;;10.00;4.43;;;-3.00;99.90;;;;;;4233882;28;20469;-74
2023/11/29 04:19:20;;;;;;;8.87;4.20;;;-3.00;99.90;;;;;;4236489;28;20518;-73
2023/11/29 04:21:25;;;;;;;9.93;4.10;;;-3.00;99.90;;;;;;4234659;28;20454;-73
2023/11/29 04:23:26;;;;;;;7.90;4.07;;;-3.00;99.90;;;;;;4234815;28;20461;-72
2023/11/29 04:25:28;;;;;;;8.37;4.07;;;-3.00;99.90;;;;;;4240257;27;20446;-74
2023/11/29 04:27:30;;;;;;;6.83;3.83;;;-3.10;99.90;;;;;;4234945;28;20883;-75
2023/11/29 04:29:32;;;;;;;7.33;3.73;;;-3.10;99.90;;;;;;4235476;28;20964;-73
2023/11/29 04:31:36;;;;;;;7.73;3.63;;;-3.10;99.90;;;;;;4236728;27;20473;-73
2023/11/29 04:33:38;;;;;;;8.20;3.73;;;-3.10;99.90;;;;;;4236609;28;20464;-75
2023/11/29 04:35:41;;;;;;;9.60;3.93;;;-3.10;99.90;;;;;;4240011;28;20445;-76
2023/11/29 04:37:43;;;;;;;8.63;4.37;;;-3.10;99.90;;;;;;4236856;27;20488;-72
2023/11/29 04:39:45;;;;;;;9.20;4.27;;;-3.10;99.90;;;;;;4237761;27;20450;-73
2023/11/29 04:41:47;;;;;;;7.27;3.97;;;-3.10;99.90;;;;;;4234029;28;21005;-73
2023/11/29 04:43:55;;;;;;;9.77;4.23;;;-3.20;99.90;;;;;;4244349;28;20459;-74
2023/11/29 04:45:57;;;;;;;11.23;4.17;;;-3.20;99.90;;;;;;4237430;27;20488;-73
2023/11/29 04:47:59;;;;;;;8.47;3.90;;;-3.20;99.90;;;;;;4236509;28;20473;-72
2023/11/29 04:50:01;;;;;;;7.13;4.07;;;-3.20;99.90;;;;;;4235351;28;20936;-75
2023/11/29 04:52:05;;;;;;;8.23;3.43;;;-3.20;99.90;;;;;;4236887;27;20446;-73
2023/11/29 04:54:07;;;;;;;8.60;4.00;;;-3.20;99.90;;;;;;4235723;28;20802;-73
2023/11/29 04:56:10;;;;;;;8.30;4.20;;;-3.20;99.90;;;;;;4234752;28;20442;-73
2023/11/29 04:58:13;;;;;;;8.20;4.20;;;-3.20;99.90;;;;;;4233115;28;20490;-73
2023/11/29 05:00:15;;;;;;;8.07;3.70;;;-3.20;99.90;;;;;;4238838;28;20506;-73
2023/11/29 05:02:17;;;;;;;8.63;3.80;;;-3.20;99.90;;;;;;4235898;28;20983;-73
2023/11/29 05:04:19;;;;;;;7.83;3.63;;;-3.20;99.90;;;;;;4238687;28;20467;-75
2023/11/29 05:06:22;;;;;;;6.57;3.40;;;-3.20;99.90;;;;;;4243360;27;20441;-74
2023/11/29 05:08:25;;;;;;;7.50;4.10;;;-3.20;99.90;;;;;;4240422;27;20538;-73
2023/11/29 05:10:27;;;;;;;6.33;3.77;;;-3.20;99.90;;;;;;4241678;27;20454;-75
2023/11/29 05:12:29;;;;;;;7.63;3.77;;;-3.20;99.90;;;;;;4242750;27;21195;-73
2023/11/29 05:14:33;;;;;;;6.20;3.57;;;-3.20;99.90;;;;;;4244206;27;20970;-75
2023/11/29 05:16:34;;;;;;;8.37;3.93;;;-3.20;99.90;;;;;;4242668;27;20437;-77
2023/11/29 05:18:35;;;;;;;10.20;3.83;;;-3.20;99.90;;;;;;4245191;27;20510;-73
2023/11/29 05:20:37;;;;;;;8.50;3.83;;;-2.80;99.90;;;;;;4237299;27;20430;-73
2023/11/29 05:22:39;;;;;;;8.07;4.30;;;-3.10;99.90;;;;;;4239495;27;20660;-75
2023/11/29 05:24:42;;;;;;;6.30;3.80;;;-3.10;99.90;;;;;;4243845;27;20602;-73
2023/11/29 05:26:44;;;;;;;9.30;4.10;;;-3.20;99.90;;;;;;4236865;27;21006;-72
2023/11/29 05:28:45;;;;;;;7.50;3.97;;;-3.10;99.90;;;;;;4238941;27;20466;-74
2023/11/29 05:30:47;;;;;;;8.20;3.93;;;-3.10;99.90;;;;;;4235569;27;20943;-75
2023/11/29 05:32:49;;;;;;;8.00;4.00;;;-3.10;99.90;;;;;;4242979;27;20197;-76
2023/11/29 05:34:51;;;;;;;7.97;4.07;;;-2.80;99.90;;;;;;4242250;27;20495;-72
2023/11/29 05:36:53;;;;;;;8.70;4.00;;;-3.00;99.90;;;;;;4234714;27;20496;-72
2023/11/29 05:38:55;;;;;;;9.63;4.20;;;-2.90;99.90;;;;;;4246548;27;20518;-75
2023/11/29 05:41:00;;;;;;;8.37;3.87;;;-2.90;99.90;;;;;;4235457;27;20437;-76
2023/11/29 05:43:02;;;;;;;10.67;4.63;;;-2.90;99.90;;;;;;4243101;27;20488;-77
2023/11/29 05:45:03;;;;;;;9.50;4.57;;;-2.90;99.90;;;;;;4242417;27;20506;-74
2023/11/29 05:47:06;;;;;;;9.37;4.17;;;-2.80;99.90;;;;;;4235388;27;20969;-75
2023/11/29 05:49:08;;;;;;;8.43;4.07;;;-2.80;99.90;;;;;;4238719;27;20457;-74
2023/11/29 05:51:11;;;;;;;8.40;4.20;;;-2.80;99.90;;;;;;4239086;27;20553;-74
2023/11/29 05:53:14;;;;;;;9.70;4.23;;;-2.70;99.90;;;;;;4241844;27;20916;-73
2023/11/29 05:55:16;;;;;;;9.53;4.27;;;-2.70;99.90;;;;;;4244445;27;20452;-75
2023/11/29 05:57:22;;;;;;;8.43;4.37;;;-2.70;99.90;;;;;;4241117;27;20478;-73
2023/11/29 05:59:24;;;;;;;9.50;4.30;;;-2.70;99.90;;;;;;4242532;27;20446;-73
2023/11/29 06:01:26;;;;;;;8.83;4.70;;;-2.70;99.90;;;;;;4241925;27;20457;-75
2023/11/29 06:03:28;;;;;;;9.57;4.50;;;-2.70;99.90;;;;;;4235250;27;20893;-73
2023/11/29 06:05:29;;;;;;;9.40;4.70;;;-2.70;99.90;;;;;;4245697;27;20437;-72
2023/11/29 06:07:31;;;;;;;11.63;5.63;;;-2.20;99.90;;;;;;4243236;27;20441;-74
2023/11/29 06:09:36;;;;;;;11.90;5.00;;;-2.60;99.90;;;;;;4238029;27;21156;-73
2023/11/29 06:11:38;;;;;;;9.57;4.77;;;-2.50;99.90;;;;;;4241414;27;20523;-75
2023/11/29 06:13:41;;;;;;;10.80;4.70;;;-2.50;99.90;;;;;;4241184;27;20449;-73
2023/11/29 06:15:43;;;;;;;9.03;4.30;;;-2.60;99.90;;;;;;4237879;27;20522;-72
2023/11/29 06:17:45;;;;;;;10.40;4.97;;;-2.50;99.90;;;;;;4239328;27;20488;-73
2023/11/29 06:19:47;;;;;;;9.50;4.63;;;-2.50;99.90;;;;;;4238307;27;20457;-73
2023/11/29 06:21:49;;;;;;;8.17;4.20;;;-2.50;99.90;;;;;;4242633;27;20502;-73
2023/11/29 06:23:51;;;;;;;9.93;5.10;;;-2.50;99.90;;;;;;4240606;27;20472;-73
2023/11/29 06:25:54;;;;;;;9.47;4.80;;;-2.50;99.90;;;;;;4241179;27;20961;-75
2023/11/29 06:27:56;;;;;;;9.50;4.87;;;-2.50;99.90;;;;;;4246761;27;20455;-74
2023/11/29 06:29:59;;;;;;;9.40;4.77;;;-2.40;99.90;;;;;;4244044;27;20446;-73
2023/11/29 06:32:01;;;;;;;11.90;5.47;;;-2.50;99.90;;;;;;4242153;27;20440;-73
2023/11/29 06:34:03;;;;;;;10.47;4.97;;;-2.40;99.90;;;;;;4244503;27;20480;-75
2023/11/29 06:36:09;;;;;;;11.67;5.00;;;-2.10;99.90;;;;;;4245319;27;20913;-74
2023/11/29 06:38:10;;;;;;;9.23;4.50;;;-2.40;99.90;;;;;;4241840;27;20921;-73
2023/11/29 06:40:16;;;;;;;9.33;5.27;;;-2.30;99.90;;;;;;4237960;27;20442;-73
2023/11/29 06:42:18;;;;;;;10.83;5.07;;;-2.40;99.90;;;;;;4238598;27;20997;-73
2023/11/29 06:44:20;;;;;;;12.33;5.70;;;-2.40;99.90;;;;;;4242192;27;20861;-73
2023/11/29 06:46:23;;;;;;;10.93;5.50;;;-2.30;99.90;;;;;;4245169;27;20811;-72
2023/11/29 06:48:25;;;;;;;14.10;5.47;;;-2.30;99.90;;;;;;4238986;27;20461;-76
2023/11/29 06:50:28;;;;;;;12.03;5.53;;;-1.30;99.90;;;;;;4239054;27;20471;-75
2023/11/29 06:52:29;;;;;;;11.20;5.40;;;-2.30;99.90;;;;;;4240005;27;20522;-73
2023/11/29 06:54:31;;;;;;;12.90;5.67;;;-2.30;99.90;;;;;;4239759;27;21126;-73
2023/11/29 06:56:33;;;;;;;9.07;5.10;;;-2.20;99.90;;;;;;4237761;27;20514;-75
2023/11/29 06:58:34;;;;;;;12.47;5.90;;;-2.30;99.90;;;;;;4244084;27;20485;-73
2023/11/29 07:00:36;;;;;;;11.57;5.77;;;-2.20;99.90;;;;;;4246638;27;20488;-74
2023/11/29 07:02:39;;;;;;;11.33;5.23;;;-2.20;99.90;;;;;;4243030;27;20513;-74
2023/11/29 07:04:43;;;;;;;9.97;4.93;;;-2.30;99.90;;;;;;4237081;27;20500;-75
2023/11/29 07:06:45;;;;;;;9.57;5.33;;;-2.30;99.90;;;;;;4233804;27;20443;-74
2023/11/29 07:08:46;;;;;;;12.53;6.07;;;-2.20;99.90;;;;;;4237420;27;20471;-76
2023/11/29 07:10:48;;;;;;;10.83;5.27;;;-2.20;99.90;;;;;;4243048;27;20537;-74
2023/11/29 07:12:52;;;;;;;11.23;5.27;;;-2.10;99.90;;;;;;4242480;27;20445;-74
2023/11/29 07:14:54;;;;;;;14.27;5.90;;;-2.10;99.90;;;;;;4235575;27;20968;-74
2023/11/29 07:16:56;;;;;;;12.20;5.93;;;-2.10;99.90;;;;;;4241387;27;20549;-75
2023/11/29 07:19:00;;;;;;;10.87;5.40;;;-2.10;99.90;;;;;;4241090;27;21605;-74
2023/11/29 07:21:05;;;;;;;11.87;6.00;;;-2.10;99.90;;;;;;4240916;27;20498;-76
2023/11/29 07:23:07;;;;;;;12.00;6.07;;;-2.10;99.90;;;;;;4233945;27;20478;-74
2023/11/29 07:25:10;;;;;;;12.33;5.73;;;-2.10;99.90;;;;;;4237017;27;20446;-75
2023/11/29 07:27:12;;;;;;;11.00;5.67;;;-2.00;99.90;;;;;;4238113;27;20443;-74
2023/11/29 07:29:14;;;;;;;11.67;5.93;;;-2.00;99.90;;;;;;4237107;27;20516;-74
2023/11/29 07:31:16;;;;;;;11.57;5.83;;;-2.00;99.90;;;;;;4233479;27;21146;-74
2023/11/29 07:33:18;;;;;;;13.13;5.97;;;-2.00;99.90;;;;;;4238295;27;20474;-74
2023/11/29 07:35:21;;;;;;;8.80;5.07;;;-1.90;99.90;;;;;;4242969;27;20442;-74
2023/11/29 07:37:23;;;;;;;12.43;5.43;;;-1.80;99.90;;;;;;4239643;27;20439;-74
2023/11/29 07:39:26;;;;;;;11.07;5.80;;;-1.80;99.90;;;;;;4232981;27;20560;-75
2023/11/29 07:41:28;;;;;;;11.27;5.43;;;-1.90;99.90;;;;;;4240344;27;20528;-75
2023/11/29 07:43:30;;;;;;;11.40;5.67;;;-1.80;99.90;;;;;;4241800;27;20496;-75
2023/11/29 07:45:35;;;;;;;11.63;6.03;;;-1.80;99.90;;;;;;4239909;28;20446;-74
2023/11/29 07:47:36;;;;;;;11.07;5.60;;;-1.80;99.90;;;;;;4239277;27;20485;-75
2023/11/29 07:49:38;;;;;;;11.93;6.07;;;-1.80;99.90;;;;;;4243047;27;20936;-74
2023/11/29 07:51:44;;;;;;;12.57;6.10;;;-1.80;99.90;;;;;;4233751;27;20444;-74
2023/11/29 07:53:46;;;;;;;14.03;6.27;;;-1.70;99.90;;;;;;4238357;28;21821;-74
2023/11/29 07:55:48;;;;;;;13.87;6.20;;;-1.70;99.90;;;;;;4238250;27;20515;-74
2023/11/29 07:57:50;;;;;;;13.13;6.37;;;-1.60;99.90;;;;;;4240568;27;21284;-74
2023/11/29 07:59:52;;;;;;;11.17;5.87;;;-1.60;99.90;;;;;;4236108;28;20454;-74
2023/11/29 08:01:54;;;;;;;12.07;5.73;;;-1.50;99.90;;;;;;4233273;27;20496;-75
2023/11/29 08:03:56;;;;;;;15.23;6.60;;;-1.60;99.90;;;;;;4239605;28;20775;-74
2023/11/29 08:05:57;;;;;;;12.17;6.60;;;-1.60;99.90;;;;;;4237845;28;20443;-74
2023/11/29 08:08:00;;;;;;;13.43;6.70;;;-1.60;99.90;;;;;;4237657;28;20466;-74
2023/11/29 08:10:07;;;;;;;13.97;6.60;;;-1.60;99.90;;;;;;4237450;28;20435;-75
2023/11/29 08:12:10;;;;;;;12.30;6.23;;;-1.60;99.90;;;;;;4239578;28;20471;-75
2023/11/29 08:14:12;;;;;;;12.90;6.47;;;-1.50;99.90;;;;;;4232268;28;20530;-75
2023/11/29 08:16:14;;;;;;;16.10;7.00;;;-1.50;99.90;;;;;;4234634;28;20451;-74
2023/11/29 08:18:15;;;;;;;15.47;6.77;;;-1.50;99.90;;;;;;4238679;28;21050;-74
2023/11/29 08:20:17;;;;;;;15.30;7.37;;;-1.40;99.90;;;;;;4238714;27;20438;-75
2023/11/29 08:22:18;;;;;;;13.70;6.57;;;-1.50;99.90;;;;;;4236041;27;20302;-74
2023/11/29 08:24:24;;;;;;;12.53;6.40;;;-1.50;99.90;;;;;;4232281;27;20463;-75
2023/11/29 08:26:26;;;;;;;16.00;7.20;;;-1.40;99.90;;;;;;4239016;28;20206;-76
2023/11/29 08:28:28;;;;;;;14.10;7.33;;;-1.30;99.90;;;;;;4234732;28;20484;-74
2023/11/29 08:30:30;;;;;;;16.20;6.70;;;-1.30;99.90;;;;;;4238691;28;20504;-76
2023/11/29 08:32:32;;;;;;;13.77;7.17;;;-1.30;99.90;;;;;;4236645;27;20456;-78
2023/11/29 08:34:34;;;;;;;13.83;6.77;;;-1.20;99.90;;;;;;4232131;28;20553;-78
2023/11/29 08:36:36;;;;;;;13.57;6.60;;;-1.10;99.90;;;;;;4229775;27;20555;-77
2023/11/29 08:38:38;;;;;;;12.10;6.03;;;-1.10;99.90;;;;;;4230578;28;20503;-75
2023/11/29 08:40:41;;;;;;;13.40;6.40;;;-0.80;99.90;;;;;;4239017;27;20922;-76
2023/11/29 08:42:46;;;;;;;13.77;7.17;;;-0.90;99.90;;;;;;4237973;27;20452;-73
2023/11/29 08:44:48;;;;;;;14.20;7.00;;;-0.90;99.90;;;;;;4236501;27;20459;-76
2023/11/29 08:46:50;;;;;;;14.90;6.93;;;-0.80;99.90;;;;;;4246493;27;20520;-75
2023/11/29 08:48:52;;;;;;;13.00;6.53;;;-0.80;99.90;;;;;;4239152;27;20541;-75
2023/11/29 08:50:54;;;;;;;13.93;6.93;;;-0.70;99.90;;;;;;4244163;27;20537;-75
2023/11/29 08:52:55;;;;;;;13.00;6.63;;;-0.70;99.90;;;;;;4242693;27;20476;-76
2023/11/29 08:54:57;;;;;;;15.23;7.33;;;-0.70;99.90;;;;;;4244489;27;20449;-75
2023/11/29 08:57:01;;;;;;;12.17;7.07;;;-0.70;99.90;;;;;;4240008;27;20530;-75
2023/11/29 08:59:04;;;;;;;16.93;7.90;;;-0.70;99.90;;;;;;4239876;27;20484;-76
2023/11/29 09:01:11;;;;;;;14.50;7.13;;;-0.70;99.90;;;;;;4231638;28;20443;-75
2023/11/29 09:03:13;;;;;;;13.70;7.30;;;-0.70;99.90;;;;;;4245354;27;20448;-76
2023/11/29 09:05:17;;;;;;;12.73;6.67;;;-0.60;99.90;;;;;;4236864;27;20865;-76
2023/11/29 09:07:19;;;;;;;13.40;7.13;;;-0.60;99.90;;;;;;4243715;27;20440;-75
2023/11/29 09:09:21;;;;;;;14.83;7.07;;;-0.60;99.90;;;;;;4241036;27;20465;-76
2023/11/29 09:11:23;;;;;;;12.73;7.13;;;-0.60;99.90;;;;;;4238305;27;20456;-77
2023/11/29 09:13:26;;;;;;;13.20;7.30;;;-0.50;99.90;;;;;;4234988;27;20451;-75
2023/11/29 09:15:28;;;;;;;12.40;6.23;;;-0.50;99.90;;;;;;4237243;27;20943;-76
2023/11/29 09:17:29;;;;;;;15.80;7.63;;;-0.40;99.90;;;;;;4242128;27;20492;-75
2023/11/29 09:19:32;;;;;;;14.43;7.40;;;-0.40;99.90;;;;;;4233376;27;20474;-76
2023/11/29 09:21:35;;;;;;;14.70;7.10;;;-0.30;99.90;;;;;;4241008;27;20210;-76
2023/11/29 09:23:37;;;;;;;16.93;7.63;;;-0.30;99.90;;;;;;4245942;27;20529;-75
2023/11/29 09:25:38;;;;;;;13.30;6.90;;;-0.30;99.90;;;;;;4237114;27;20462;-75
2023/11/29 09:27:39;;;;;;;14.10;7.60;;;-0.30;99.90;;;;;;4242728;27;20495;-76
2023/11/29 09:29:43;;;;;;;13.57;7.67;;;-0.30;99.90;;;;;;4236825;27;20487;-76
2023/11/29 09:31:45;;;;;;;12.93;6.97;;;-0.30;99.90;;;;;;4235713;27;20211;-76
2023/11/29 09:33:47;;;;;;;15.37;7.30;;;-0.40;99.90;;;;;;4244624;27;20462;-76
2023/11/29 09:35:49;;;;;;;14.17;7.50;;;-0.10;99.90;;;;;;4237588;27;20520;-75
2023/11/29 09:37:51;;;;;;;13.13;7.40;;;-0.40;99.90;;;;;;4237874;27;20472;-76
2023/11/29 09:39:52;;;;;;;14.37;7.50;;;-0.40;99.90;;;;;;4240181;27;20457;-75
2023/11/29 09:41:54;;;;;;;13.53;6.37;;;-0.40;99.90;;;;;;4238861;27;20509;-76
2023/11/29 09:43:56;;;;;;;14.13;6.93;;;-0.50;99.90;;;;;;4239537;27;20526;-75
2023/11/29 09:46:00;;;;;;;13.57;6.93;;;-0.40;99.90;;;;;;4245846;27;20450;-76
2023/11/29 09:48:03;;;;;;;13.57;7.50;;;-0.50;99.90;;;;;;4219551;28;20524;-75
2023/11/29 09:50:07;;;;;;;12.20;6.67;;;-0.50;99.90;;;;;;4238120;27;20427;-75
2023/11/29 09:52:09;;;;;;;14.80;6.83;;;-0.50;99.90;;;;;;4240443;27;20437;-74
2023/11/29 09:54:10;;;;;;;21.53;8.37;;;-0.50;99.90;;;;;;4240550;27;20509;-74
2023/11/29 09:56:13;;;;;;;17.13;8.07;;;-0.50;99.90;;;;;;4241461;27;20457;-74
2023/11/29 09:58:18;;;;;;;13.77;7.30;;;-0.50;99.90;;;;;;4233403;27;20504;-75
2023/11/29 10:00:20;;;;;;;13.87;7.43;;;-0.50;99.90;;;;;;4229194;27;20536;-75
2023/11/29 10:02:23;;;;;;;16.83;7.90;;;-0.50;99.90;;;;;;4236398;27;20449;-75
2023/11/29 10:04:25;;;;;;;17.33;8.23;;;-0.40;99.90;;;;;;4236330;27;20837;-75
2023/11/29 10:06:27;;;;;;;17.33;8.23;;;-0.50;99.90;;;;;;4246959;27;20546;-75
2023/11/29 10:08:29;;;;;;;16.10;8.17;;;-0.50;99.90;;;;;;4243148;27;20468;-75
2023/11/29 10:10:33;;;;;;;14.60;7.90;;;-0.40;99.90;;;;;;4240400;27;20445;-74
2023/11/29 10:12:37;;;;;;;18.47;8.07;;;-0.40;99.90;;;;;;4235775;27;20432;-74
2023/11/29 10:14:40;;;;;;;15.33;8.23;;;-0.40;99.90;;;;;;4235888;27;20442;-74
2023/11/29 10:16:42;;;;;;;16.53;8.57;;;-0.30;99.90;;;;;;4237122;27;20469;-76
2023/11/29 10:18:47;;;;;;;15.70;7.73;;;-0.30;99.90;;;;;;4240749;27;20907;-74
2023/11/29 10:20:51;;;;;;;14.80;7.83;;;-0.30;99.90;;;;;;4242488;27;20444;-75
2023/11/29 10:22:53;;;;;;;15.50;7.80;;;-0.30;99.90;;;;;;4236400;27;21270;-76
2023/11/29 10:24:55;;;;;;;19.63;8.53;;;-0.20;99.90;;;;;;4243192;27;20453;-77
2023/11/29 10:26:59;;;;;;;17.07;8.00;;;-0.40;99.90;;;;;;4241593;27;20440;-76
2023/11/29 10:29:01;;;;;;;16.47;8.40;;;-0.10;99.90;;;;;;4241260;27;20449;-75
2023/11/29 10:31:04;;;;;;;16.90;8.17;;;-0.10;99.90;;;;;;4241207;27;20471;-74